Time;durP1;ratioP1;P1;durP2;ratioP2;P2;SDS_P1;SDS_P2;PMS_P1;PMS_P2;Temp;Humidity;BMP_temperature;BMP_pressure;BME280_temperature;BME280_humidity;BME280_pressure;Samples;Min_cycle;Max_cycle;Signal;HPM_P1;HPM_P2
2022/10/16 00:00:46;;;;;;;27.77;19.00;;;18.70;90.40;;;;;;5057439;28;20021;-83
2022/10/16 00:03:11;;;;;;;28.88;20.27;;;18.70;90.50;;;;;;5039922;28;20474;-81
2022/10/16 00:05:42;;;;;;;28.33;19.33;;;18.70;90.60;;;;;;5056040;28;20025;-75
2022/10/16 00:08:10;;;;;;;28.90;19.35;;;18.60;90.50;;;;;;5055022;28;20025;-75
2022/10/16 00:10:36;;;;;;;30.08;20.40;;;18.60;90.60;;;;;;5056015;28;20017;-76
2022/10/16 00:13:03;;;;;;;24.10;17.55;;;18.60;90.70;;;;;;5042067;28;20055;-76
2022/10/16 00:15:36;;;;;;;26.35;19.08;;;18.60;90.50;;;;;;5057893;28;20029;-76
2022/10/16 00:18:03;;;;;;;24.83;19.23;;;18.50;90.60;;;;;;5054250;28;20040;-77
2022/10/16 00:20:31;;;;;;;24.48;18.08;;;18.50;90.50;;;;;;5035826;28;20072;-74
2022/10/16 00:22:57;;;;;;;26.30;19.35;;;18.50;90.30;;;;;;5053760;28;20443;-77
2022/10/16 00:25:23;;;;;;;25.50;18.23;;;18.50;90.40;;;;;;5053561;28;20029;-75
2022/10/16 00:27:51;;;;;;;22.73;17.65;;;18.50;90.50;;;;;;5053667;28;20508;-74
2022/10/16 00:30:17;;;;;;;27.05;17.90;;;18.40;90.50;;;;;;5053549;28;20056;-75
2022/10/16 00:32:43;;;;;;;26.83;17.98;;;18.30;90.50;;;;;;5053397;28;20391;-75
2022/10/16 00:35:08;;;;;;;24.23;18.13;;;18.30;90.60;;;;;;5035695;28;20037;-75
2022/10/16 00:37:34;;;;;;;21.80;17.00;;;18.20;90.60;;;;;;5053376;28;20513;-76
2022/10/16 00:40:00;;;;;;;24.60;17.90;;;18.20;90.70;;;;;;5052846;28;20162;-75
2022/10/16 00:42:26;;;;;;;28.50;18.60;;;18.10;90.70;;;;;;5053483;28;20059;-75
2022/10/16 00:44:57;;;;;;;21.15;16.17;;;18.00;90.70;;;;;;5052766;28;20029;-75
2022/10/16 00:47:28;;;;;;;23.50;15.35;;;18.00;90.70;;;;;;5054637;28;20029;-74
2022/10/16 00:50:11;;;;;;;22.88;16.42;;;18.00;90.80;;;;;;5055628;28;20040;-74
2022/10/16 00:52:41;;;;;;;22.15;15.02;;;17.90;90.70;;;;;;5055541;28;20077;-75
2022/10/16 00:55:09;;;;;;;24.67;15.80;;;17.90;90.60;;;;;;5055109;28;20107;-75
2022/10/16 00:57:35;;;;;;;20.55;14.23;;;17.90;90.70;;;;;;5053986;28;20059;-75
2022/10/16 01:00:03;;;;;;;20.98;14.38;;;17.90;90.60;;;;;;5053987;28;20028;-74
2022/10/16 01:02:29;;;;;;;22.38;12.70;;;17.90;90.50;;;;;;5053290;28;20536;-74
2022/10/16 01:04:55;;;;;;;22.75;12.82;;;17.90;90.50;;;;;;5054666;28;20050;-74
2022/10/16 01:07:39;;;;;;;18.35;13.18;;;17.90;90.40;;;;;;5053152;28;20017;-74
2022/10/16 01:10:10;;;;;;;23.20;13.23;;;17.90;90.30;;;;;;5056455;28;20029;-76
2022/10/16 01:12:39;;;;;;;17.67;12.57;;;17.90;90.40;;;;;;5053571;28;20096;-80
2022/10/16 01:15:17;;;;;;;18.17;12.40;;;17.90;90.50;;;;;;5035544;28;20029;-79
2022/10/16 01:17:51;;;;;;;16.52;12.32;;;17.80;90.50;;;;;;5053483;28;20040;-78
2022/10/16 01:20:45;;;;;;;17.75;12.73;;;17.80;90.30;;;;;;5053254;28;20044;-78
2022/10/16 01:23:31;;;;;;;21.50;13.02;;;17.80;90.50;;;;;;5048749;28;20076;-75
2022/10/16 01:26:18;;;;;;;20.65;13.15;;;17.80;90.40;;;;;;5035154;28;20027;-81
2022/10/16 01:29:06;;;;;;;18.02;13.15;;;17.70;90.60;;;;;;5053518;28;20033;-79
2022/10/16 01:31:36;;;;;;;17.90;13.45;;;17.70;90.60;;;;;;5053332;28;20438;-80
2022/10/16 01:34:24;;;;;;;18.45;13.38;;;17.70;90.50;;;;;;5053495;28;20025;-79
2022/10/16 01:36:55;;;;;;;19.80;14.10;;;17.70;90.50;;;;;;5053199;28;20033;-78
2022/10/16 01:39:25;;;;;;;23.67;13.60;;;17.70;90.50;;;;;;5053517;28;20099;-75
2022/10/16 01:42:04;;;;;;;20.17;14.45;;;17.70;90.50;;;;;;5053951;28;20039;-77
2022/10/16 01:44:34;;;;;;;19.02;13.52;;;17.70;90.60;;;;;;5053059;28;20049;-81
2022/10/16 01:47:02;;;;;;;18.13;12.80;;;17.70;90.40;;;;;;5053271;28;20025;-79
2022/10/16 01:49:33;;;;;;;18.95;13.50;;;17.70;90.60;;;;;;5052992;28;20021;-79
2022/10/16 01:52:02;;;;;;;18.13;12.57;;;17.70;90.60;;;;;;5054076;28;20056;-79
2022/10/16 01:54:30;;;;;;;18.77;13.10;;;17.70;90.50;;;;;;5053983;28;20087;-76
2022/10/16 01:56:57;;;;;;;21.70;11.70;;;17.70;90.40;;;;;;5055572;28;20068;-81
2022/10/16 01:59:27;;;;;;;19.70;11.77;;;17.70;90.40;;;;;;5060008;28;20382;-81
2022/10/16 02:01:59;;;;;;;16.35;12.18;;;17.70;90.40;;;;;;5042061;28;20045;-80
2022/10/16 02:04:32;;;;;;;16.10;12.65;;;17.70;90.30;;;;;;5057116;28;20021;-79
2022/10/16 02:06:59;;;;;;;16.92;11.38;;;17.60;90.40;;;;;;5056981;28;20029;-78
2022/10/16 02:09:26;;;;;;;19.02;12.23;;;17.60;90.50;;;;;;5056071;28;20119;-81
2022/10/16 02:11:55;;;;;;;16.92;11.35;;;17.60;90.50;;;;;;5022308;28;20466;-77
2022/10/16 02:14:24;;;;;;;17.27;10.85;;;17.50;90.50;;;;;;5056263;28;20451;-78
2022/10/16 02:16:50;;;;;;;13.98;10.77;;;17.50;90.70;;;;;;5056107;28;20164;-78
2022/10/16 02:19:19;;;;;;;16.10;10.70;;;17.50;90.60;;;;;;5056560;28;20496;-79
2022/10/16 02:22:00;;;;;;;18.30;11.13;;;17.40;90.70;;;;;;5056783;28;20025;-79
2022/10/16 02:24:37;;;;;;;15.50;11.65;;;17.40;90.60;;;;;;5056824;28;20086;-81
2022/10/16 02:27:11;;;;;;;14.00;9.68;;;17.40;90.50;;;;;;5056195;28;20078;-79
2022/10/16 02:29:48;;;;;;;16.67;10.50;;;17.40;90.70;;;;;;5055890;28;20340;-79
2022/10/16 02:32:19;;;;;;;17.70;11.00;;;17.40;90.60;;;;;;5056133;28;20071;-79
2022/10/16 02:34:46;;;;;;;17.45;10.57;;;17.50;90.50;;;;;;5055933;28;20025;-80
2022/10/16 02:37:13;;;;;;;14.98;10.35;;;17.50;90.40;;;;;;5055823;28;20040;-74
2022/10/16 02:39:40;;;;;;;16.48;9.93;;;17.50;90.30;;;;;;5056100;28;20017;-75
2022/10/16 02:42:13;;;;;;;17.95;10.10;;;17.40;90.30;;;;;;5056003;28;20032;-76
2022/10/16 02:44:39;;;;;;;12.57;9.88;;;17.40;90.60;;;;;;5056315;28;20029;-75
2022/10/16 02:47:06;;;;;;;17.60;9.55;;;17.40;90.40;;;;;;5056426;28;20027;-74
2022/10/16 02:49:31;;;;;;;14.82;9.60;;;17.40;90.40;;;;;;5056355;28;20492;-77
2022/10/16 02:51:57;;;;;;;12.88;9.05;;;17.40;90.40;;;;;;5055965;28;20050;-75
2022/10/16 02:54:23;;;;;;;15.50;10.05;;;17.40;90.50;;;;;;5057653;28;20357;-76
2022/10/16 02:56:49;;;;;;;12.90;9.32;;;17.40;90.40;;;;;;5058169;28;20053;-75
2022/10/16 02:59:15;;;;;;;13.50;9.57;;;17.40;90.40;;;;;;5037221;28;20040;-77
2022/10/16 03:01:42;;;;;;;15.82;9.60;;;17.40;90.30;;;;;;5055224;28;20044;-77
2022/10/16 03:04:08;;;;;;;14.38;9.73;;;17.40;90.30;;;;;;5055020;28;20100;-76
2022/10/16 03:06:34;;;;;;;13.10;9.80;;;17.40;90.20;;;;;;5054845;28;20152;-79
2022/10/16 03:09:00;;;;;;;13.27;9.63;;;17.30;90.30;;;;;;5054212;28;20025;-76
2022/10/16 03:11:26;;;;;;;15.27;10.00;;;17.20;90.30;;;;;;5054880;28;20044;-74
2022/10/16 03:13:52;;;;;;;15.48;9.05;;;17.20;90.40;;;;;;5054755;28;20477;-77
2022/10/16 03:16:18;;;;;;;13.30;9.98;;;17.20;90.50;;;;;;5054572;28;20475;-75
2022/10/16 03:18:47;;;;;;;15.73;10.20;;;17.20;90.50;;;;;;5055051;28;20051;-77
2022/10/16 03:21:13;;;;;;;15.15;10.65;;;17.20;90.50;;;;;;5054801;28;20045;-75
2022/10/16 03:23:38;;;;;;;16.17;9.80;;;17.20;90.40;;;;;;5055492;28;20029;-75
2022/10/16 03:26:04;;;;;;;16.63;11.13;;;17.20;90.50;;;;;;5055749;28;20428;-77
2022/10/16 03:28:31;;;;;;;16.02;9.27;;;17.20;90.50;;;;;;5054744;28;20495;-75
2022/10/16 03:30:57;;;;;;;18.67;10.20;;;17.20;90.70;;;;;;5054566;28;20021;-76
2022/10/16 03:33:23;;;;;;;13.38;10.60;;;17.20;90.60;;;;;;5036487;28;20025;-75
2022/10/16 03:35:53;;;;;;;17.83;11.32;;;17.10;90.60;;;;;;5054297;28;20021;-80
2022/10/16 03:38:19;;;;;;;14.20;10.73;;;17.10;90.60;;;;;;5054458;28;20021;-75
2022/10/16 03:40:45;;;;;;;16.75;11.25;;;17.10;90.70;;;;;;5054218;28;20082;-77
2022/10/16 03:43:11;;;;;;;23.17;12.15;;;17.10;90.80;;;;;;5054573;28;20032;-76
2022/10/16 03:45:36;;;;;;;17.77;11.40;;;17.00;90.90;;;;;;5054152;28;20025;-76
2022/10/16 03:48:03;;;;;;;21.05;12.52;;;17.10;91.00;;;;;;5054274;28;20028;-82
2022/10/16 03:50:29;;;;;;;18.95;12.25;;;17.00;91.00;;;;;;5054832;28;20021;-80
2022/10/16 03:52:55;;;;;;;14.93;11.40;;;17.00;91.00;;;;;;5054885;28;20366;-78
2022/10/16 03:55:21;;;;;;;18.98;11.20;;;17.00;91.10;;;;;;5056212;28;20025;-81
2022/10/16 03:57:46;;;;;;;14.77;11.10;;;17.00;91.00;;;;;;5041388;28;20048;-81
2022/10/16 04:00:13;;;;;;;19.70;11.52;;;17.00;91.10;;;;;;5060228;28;20033;-81
2022/10/16 04:02:39;;;;;;;18.15;11.00;;;16.90;91.10;;;;;;5054906;28;20021;-77
2022/10/16 04:05:05;;;;;;;16.13;11.52;;;16.90;91.10;;;;;;5054100;28;20095;-75
2022/10/16 04:07:31;;;;;;;24.13;12.73;;;16.90;91.20;;;;;;5035934;28;20021;-74
2022/10/16 04:09:58;;;;;;;17.13;12.18;;;16.90;91.20;;;;;;5053974;28;20024;-75
2022/10/16 04:12:24;;;;;;;18.67;12.63;;;16.80;91.40;;;;;;5053900;28;20032;-75
2022/10/16 04:14:50;;;;;;;21.65;14.00;;;16.80;91.40;;;;;;5053824;28;20036;-75
2022/10/16 04:17:16;;;;;;;18.02;12.80;;;16.80;91.60;;;;;;5053746;28;20386;-77
2022/10/16 04:19:42;;;;;;;18.05;12.73;;;16.80;91.70;;;;;;5018903;28;20056;-80
2022/10/16 04:22:08;;;;;;;18.38;12.85;;;16.80;91.70;;;;;;5053102;28;20065;-75
2022/10/16 04:24:33;;;;;;;18.02;12.55;;;16.70;91.80;;;;;;5053660;28;20541;-75
2022/10/16 04:27:00;;;;;;;18.88;13.23;;;16.70;91.80;;;;;;5035700;28;20111;-76
2022/10/16 04:29:26;;;;;;;18.77;12.32;;;16.70;91.80;;;;;;5054474;28;20082;-76
2022/10/16 04:31:52;;;;;;;18.17;12.70;;;16.70;91.90;;;;;;5053519;28;20024;-80
2022/10/16 04:34:18;;;;;;;15.20;10.88;;;16.70;92.00;;;;;;5055726;28;20048;-77
2022/10/16 04:36:44;;;;;;;18.83;12.07;;;16.70;91.90;;;;;;5054518;28;20525;-76
2022/10/16 04:39:10;;;;;;;20.02;12.15;;;16.80;92.00;;;;;;5053729;28;20052;-80
2022/10/16 04:41:35;;;;;;;15.75;11.80;;;16.70;91.90;;;;;;5053753;28;20423;-80
2022/10/16 04:44:03;;;;;;;18.77;11.38;;;16.70;91.80;;;;;;5053436;28;20032;-78
2022/10/16 04:46:28;;;;;;;15.73;10.73;;;16.70;91.90;;;;;;5052971;28;20075;-78
2022/10/16 04:48:57;;;;;;;18.08;12.23;;;16.70;92.00;;;;;;5053295;28;20033;-77
2022/10/16 04:51:22;;;;;;;19.38;11.07;;;16.70;92.00;;;;;;5053354;28;20100;-80
2022/10/16 04:53:48;;;;;;;19.13;11.23;;;16.70;92.00;;;;;;5053491;28;20049;-80
2022/10/16 04:56:15;;;;;;;16.25;11.52;;;16.70;92.00;;;;;;5053554;28;20037;-80
2022/10/16 04:58:41;;;;;;;19.45;11.90;;;16.60;92.10;;;;;;5035278;28;20433;-78
2022/10/16 05:01:06;;;;;;;14.50;10.45;;;16.60;92.10;;;;;;5053230;28;20029;-77
2022/10/16 05:03:32;;;;;;;14.77;10.90;;;16.60;92.10;;;;;;5053395;28;20025;-77
2022/10/16 05:05:58;;;;;;;14.73;9.85;;;16.50;92.10;;;;;;5053592;28;20029;-79
2022/10/16 05:08:23;;;;;;;16.45;9.95;;;16.60;92.20;;;;;;5053169;28;20139;-75
2022/10/16 05:10:49;;;;;;;13.68;10.05;;;16.60;92.10;;;;;;5052406;28;20250;-78
2022/10/16 05:13:15;;;;;;;16.63;11.15;;;16.60;92.20;;;;;;5053346;28;20021;-77
2022/10/16 05:15:41;;;;;;;16.20;11.13;;;16.50;92.10;;;;;;5053290;28;20029;-78
2022/10/16 05:18:06;;;;;;;13.60;9.90;;;16.60;92.10;;;;;;5053447;28;20116;-83
2022/10/16 05:20:32;;;;;;;14.25;9.73;;;16.60;92.10;;;;;;5055207;28;20060;-81
2022/10/16 05:22:58;;;;;;;14.43;11.35;;;16.60;91.90;;;;;;5053630;28;20051;-78
2022/10/16 05:25:24;;;;;;;15.02;9.90;;;16.60;92.00;;;;;;5035368;28;20017;-80
2022/10/16 05:27:49;;;;;;;12.55;9.02;;;16.60;91.90;;;;;;5053526;28;20078;-78
2022/10/16 05:30:16;;;;;;;14.15;9.57;;;16.60;91.80;;;;;;5054003;28;20029;-76
2022/10/16 05:32:46;;;;;;;13.15;9.20;;;16.60;91.80;;;;;;5057149;28;20035;-76
2022/10/16 05:35:12;;;;;;;20.20;9.65;;;16.50;91.80;;;;;;5059470;28;20037;-79
2022/10/16 05:37:38;;;;;;;17.77;11.10;;;16.50;92.00;;;;;;5058928;28;20397;-75
2022/10/16 05:40:04;;;;;;;12.90;10.00;;;16.50;91.80;;;;;;5057946;28;20066;-73
2022/10/16 05:42:30;;;;;;;15.40;9.23;;;16.40;91.80;;;;;;5057904;28;20060;-78
2022/10/16 05:44:56;;;;;;;13.63;9.95;;;16.50;91.90;;;;;;5057331;28;20370;-77
2022/10/16 05:47:22;;;;;;;14.40;9.43;;;16.50;91.90;;;;;;5058240;28;20102;-79
2022/10/16 05:49:49;;;;;;;18.25;10.73;;;16.50;91.80;;;;;;5058142;28;20020;-79
2022/10/16 05:52:16;;;;;;;14.32;10.35;;;16.50;91.80;;;;;;5040992;28;20553;-80
2022/10/16 05:54:41;;;;;;;13.50;9.93;;;16.50;92.10;;;;;;5059193;28;20043;-83
2022/10/16 05:57:07;;;;;;;15.50;10.02;;;16.60;91.90;;;;;;5059550;28;20053;-81
2022/10/16 05:59:33;;;;;;;14.95;9.88;;;16.60;91.80;;;;;;5059456;28;20021;-80
2022/10/16 06:01:59;;;;;;;17.05;9.73;;;16.60;91.70;;;;;;5060102;28;20032;-83
2022/10/16 06:04:25;;;;;;;15.02;9.60;;;16.70;91.60;;;;;;5060585;28;20025;-82
2022/10/16 06:06:51;;;;;;;15.40;10.27;;;16.80;91.60;;;;;;5059759;28;20021;-82
2022/10/16 06:09:17;;;;;;;17.58;10.65;;;16.80;91.50;;;;;;5058619;28;20479;-76
2022/10/16 06:11:42;;;;;;;14.20;10.13;;;16.80;91.50;;;;;;5056646;28;20108;-80
2022/10/16 06:14:08;;;;;;;16.10;9.98;;;16.80;91.40;;;;;;5057382;28;20029;-79
2022/10/16 06:16:36;;;;;;;16.13;10.25;;;16.80;91.40;;;;;;5056666;28;20063;-78
2022/10/16 06:19:05;;;;;;;15.43;10.85;;;16.90;91.40;;;;;;5057842;28;20025;-76
2022/10/16 06:21:32;;;;;;;17.02;10.13;;;16.90;91.20;;;;;;5057958;28;20021;-80
2022/10/16 06:23:58;;;;;;;15.65;9.88;;;17.00;91.20;;;;;;5057987;28;20028;-76
2022/10/16 06:26:26;;;;;;;14.73;9.55;;;17.10;91.10;;;;;;5058097;28;20029;-77
2022/10/16 06:28:55;;;;;;;15.13;9.48;;;17.20;90.90;;;;;;5056967;28;20108;-78
2022/10/16 06:31:21;;;;;;;13.45;8.77;;;17.20;90.80;;;;;;5056708;28;20021;-73
2022/10/16 06:33:50;;;;;;;16.98;10.00;;;17.40;90.70;;;;;;5038385;28;20454;-76
2022/10/16 06:36:17;;;;;;;18.38;9.73;;;17.50;90.50;;;;;;5056258;28;20029;-77
2022/10/16 06:38:44;;;;;;;14.00;10.05;;;17.60;90.40;;;;;;5056591;28;20036;-80
2022/10/16 06:41:16;;;;;;;15.30;9.10;;;17.80;90.10;;;;;;5056995;28;20025;-75
2022/10/16 06:43:46;;;;;;;12.02;9.02;;;17.90;90.10;;;;;;5055642;28;20025;-77
2022/10/16 06:46:14;;;;;;;13.50;8.45;;;18.00;89.80;;;;;;5056685;28;20033;-76
2022/10/16 06:48:41;;;;;;;14.48;8.65;;;18.20;89.10;;;;;;5055319;28;20112;-76
2022/10/16 06:51:12;;;;;;;13.80;9.85;;;18.20;88.60;;;;;;5021198;28;20029;-77
2022/10/16 06:53:41;;;;;;;15.18;10.77;;;18.40;88.40;;;;;;5055495;28;20098;-79
2022/10/16 06:56:12;;;;;;;14.00;9.43;;;18.40;87.60;;;;;;5055347;28;20033;-78
2022/10/16 06:58:40;;;;;;;36.15;25.48;;;18.60;87.50;;;;;;5055822;28;20094;-75
2022/10/16 07:01:06;;;;;;;13.50;8.90;;;18.70;87.10;;;;;;5056263;28;20071;-75
2022/10/16 07:03:32;;;;;;;15.13;9.43;;;18.70;85.80;;;;;;5038030;28;20163;-75
2022/10/16 07:06:12;;;;;;;13.38;9.20;;;18.70;85.40;;;;;;5055565;28;20055;-76
2022/10/16 07:08:41;;;;;;;15.10;8.07;;;18.80;85.40;;;;;;5056161;28;20462;-75
2022/10/16 07:11:13;;;;;;;12.27;7.22;;;18.90;85.10;;;;;;5055412;28;20123;-75
2022/10/16 07:13:41;;;;;;;16.05;8.30;;;18.90;83.80;;;;;;5055295;28;20041;-75
2022/10/16 07:16:11;;;;;;;13.00;6.85;;;19.00;84.00;;;;;;5037408;28;20033;-74
2022/10/16 07:18:40;;;;;;;11.85;8.13;;;19.10;83.70;;;;;;5036588;28;20047;-74
2022/10/16 07:21:12;;;;;;;11.43;8.15;;;19.20;83.50;;;;;;5055241;28;20025;-77
2022/10/16 07:23:38;;;;;;;12.50;8.32;;;19.30;83.00;;;;;;5055745;28;20025;-79
2022/10/16 07:26:05;;;;;;;15.43;8.60;;;19.40;83.10;;;;;;5055143;28;20025;-78
2022/10/16 07:28:32;;;;;;;12.57;8.65;;;19.40;82.20;;;;;;5055985;28;20053;-79
2022/10/16 07:31:06;;;;;;;13.38;9.13;;;19.40;81.80;;;;;;5056880;28;20054;-78
2022/10/16 07:33:34;;;;;;;12.93;8.98;;;19.50;81.50;;;;;;5056536;28;20482;-77
2022/10/16 07:35:59;;;;;;;13.98;8.57;;;19.50;81.50;;;;;;5056693;28;20029;-77
2022/10/16 07:38:25;;;;;;;13.30;9.35;;;19.50;81.30;;;;;;5060478;28;20494;-80
2022/10/16 07:41:06;;;;;;;12.23;8.13;;;19.50;81.00;;;;;;5060111;28;20027;-76
2022/10/16 07:43:32;;;;;;;17.45;8.45;;;19.50;81.70;;;;;;5055926;28;20052;-76
2022/10/16 07:45:58;;;;;;;13.85;7.05;;;19.40;81.00;;;;;;5056646;28;20075;-79
2022/10/16 07:48:27;;;;;;;12.10;7.15;;;19.40;80.80;;;;;;5055831;28;20024;-78
2022/10/16 07:51:00;;;;;;;12.77;7.20;;;19.40;80.40;;;;;;5056930;28;20024;-81
2022/10/16 07:53:27;;;;;;;13.82;7.88;;;19.40;80.50;;;;;;5056678;28;20080;-83
2022/10/16 07:55:57;;;;;;;13.63;7.70;;;19.40;80.50;;;;;;5056062;28;20090;-77
2022/10/16 07:58:23;;;;;;;11.48;7.30;;;19.40;80.60;;;;;;5056493;28;20045;-77
2022/10/16 08:00:49;;;;;;;12.02;7.28;;;19.40;80.50;;;;;;5055642;28;20031;-78
2022/10/16 08:03:14;;;;;;;14.52;8.18;;;19.40;81.10;;;;;;5055059;28;20058;-77
2022/10/16 08:05:43;;;;;;;12.43;7.95;;;19.50;80.50;;;;;;5054944;28;20025;-75
2022/10/16 08:08:14;;;;;;;13.50;7.78;;;19.40;80.70;;;;;;5054829;28;20025;-75
2022/10/16 08:10:40;;;;;;;13.30;7.32;;;19.40;80.80;;;;;;5036455;28;20063;-79
2022/10/16 08:13:06;;;;;;;13.20;8.07;;;19.50;80.20;;;;;;5055016;28;20100;-77
2022/10/16 08:15:32;;;;;;;17.38;8.95;;;19.50;80.20;;;;;;5055078;28;20021;-77
2022/10/16 08:18:03;;;;;;;14.88;8.25;;;19.50;80.20;;;;;;5059169;28;20102;-75
2022/10/16 08:20:30;;;;;;;17.58;8.52;;;19.50;80.00;;;;;;5060423;28;20029;-77
2022/10/16 08:22:55;;;;;;;14.40;8.48;;;19.50;79.90;;;;;;5055802;28;20036;-77
2022/10/16 08:25:23;;;;;;;13.70;8.48;;;19.60;80.20;;;;;;5055343;28;20017;-76
2022/10/16 08:27:49;;;;;;;15.35;8.30;;;19.60;79.90;;;;;;5055687;28;20395;-77
2022/10/16 08:30:15;;;;;;;12.60;8.38;;;19.60;80.10;;;;;;5055850;28;20032;-76
2022/10/16 08:32:41;;;;;;;10.80;7.40;;;19.70;80.10;;;;;;5055637;28;20064;-76
2022/10/16 08:35:09;;;;;;;13.95;7.68;;;19.70;80.00;;;;;;5055310;28;20025;-74
2022/10/16 08:37:35;;;;;;;11.98;7.15;;;19.70;79.70;;;;;;5055189;28;20041;-79
2022/10/16 08:40:01;;;;;;;11.45;7.20;;;19.80;80.00;;;;;;5053769;28;20021;-75
2022/10/16 08:42:57;;;;;;;20.30;8.52;;;19.80;79.90;;;;;;5053373;28;20477;-74
2022/10/16 08:45:44;;;;;;;15.43;8.20;;;19.90;80.90;;;;;;5053421;28;20028;-75
2022/10/16 08:48:27;;;;;;;12.10;7.40;;;20.00;80.80;;;;;;5053301;28;20417;-78
2022/10/16 08:50:54;;;;;;;13.27;6.90;;;20.00;80.10;;;;;;5035552;28;20029;-79
2022/10/16 08:53:30;;;;;;;16.02;7.63;;;20.10;79.70;;;;;;5053551;28;20355;-76
2022/10/16 08:55:58;;;;;;;12.00;7.50;;;20.20;79.50;;;;;;5053740;28;20394;-80
2022/10/16 08:58:29;;;;;;;11.60;7.28;;;20.20;80.40;;;;;;5053497;28;20120;-81
2022/10/16 09:00:58;;;;;;;14.45;7.40;;;20.30;79.30;;;;;;5053910;28;20033;-75
2022/10/16 09:04:00;;;;;;;10.30;6.60;;;20.40;79.00;;;;;;5053534;28;20044;-82
2022/10/16 09:06:52;;;;;;;12.77;7.10;;;20.50;80.00;;;;;;5053513;28;20017;-78
2022/10/16 09:09:26;;;;;;;9.63;6.72;;;20.60;79.90;;;;;;5055149;28;20079;-78
2022/10/16 09:12:09;;;;;;;15.20;8.32;;;20.60;78.70;;;;;;5053435;28;20395;-82
2022/10/16 09:15:01;;;;;;;9.80;6.90;;;20.70;79.30;;;;;;5036527;28;20053;-78
2022/10/16 09:17:27;;;;;;;13.25;7.10;;;20.80;79.10;;;;;;5020349;28;20126;-78
2022/10/16 09:20:22;;;;;;;16.80;9.25;;;20.90;78.30;;;;;;5054207;28;20106;-82
2022/10/16 09:22:48;;;;;;;12.50;7.10;;;21.00;78.50;;;;;;5046140;28;20037;-81
2022/10/16 09:25:20;;;;;;;11.85;6.78;;;21.10;77.40;;;;;;5055778;28;20383;-77
2022/10/16 09:27:48;;;;;;;14.30;7.40;;;21.10;76.90;;;;;;5056018;28;20044;-80
2022/10/16 09:30:22;;;;;;;14.15;7.25;;;21.20;77.00;;;;;;5055936;28;20028;-77
2022/10/16 09:32:52;;;;;;;10.85;6.57;;;21.30;76.60;;;;;;5054438;28;20437;-79
2022/10/16 09:35:31;;;;;;;9.52;6.50;;;21.40;76.70;;;;;;5052888;28;20112;-77
2022/10/16 09:37:57;;;;;;;11.48;6.90;;;21.40;76.60;;;;;;5034750;28;20072;-77
2022/10/16 09:40:35;;;;;;;10.25;6.18;;;21.50;75.80;;;;;;5035316;28;20017;-78
2022/10/16 09:43:16;;;;;;;10.85;6.38;;;21.60;76.10;;;;;;5054051;28;20025;-76
2022/10/16 09:45:41;;;;;;;9.65;6.07;;;21.60;75.40;;;;;;5054144;28;20359;-79
2022/10/16 09:48:17;;;;;;;12.50;5.78;;;21.70;75.50;;;;;;5054482;28;20032;-78
2022/10/16 09:50:43;;;;;;;9.93;6.47;;;21.80;75.40;;;;;;5053013;28;20025;-82
2022/10/16 09:53:14;;;;;;;17.38;8.05;;;22.00;75.20;;;;;;5040732;28;20139;-80
2022/10/16 09:55:51;;;;;;;12.32;6.97;;;22.00;74.90;;;;;;5045417;28;20035;-81
2022/10/16 09:58:17;;;;;;;10.23;5.45;;;22.10;74.70;;;;;;5054703;28;20057;-79
2022/10/16 10:00:54;;;;;;;11.90;6.07;;;22.20;74.10;;;;;;5052986;28;20023;-82
2022/10/16 10:03:40;;;;;;;11.50;6.00;;;22.30;74.40;;;;;;5055437;28;20088;-76
2022/10/16 10:06:23;;;;;;;10.02;5.10;;;22.40;73.20;;;;;;5062683;28;20532;-82
2022/10/16 10:08:57;;;;;;;11.98;5.95;;;22.60;73.00;;;;;;5056810;28;20055;-76
2022/10/16 10:11:48;;;;;;;11.85;6.20;;;22.70;73.30;;;;;;5053579;28;20052;-82
2022/10/16 10:14:33;;;;;;;11.00;5.65;;;22.80;72.40;;;;;;5054829;28;20101;-80
2022/10/16 10:17:14;;;;;;;10.20;4.90;;;22.90;72.00;;;;;;5052704;28;20112;-81
2022/10/16 10:19:44;;;;;;;9.52;4.40;;;22.90;71.80;;;;;;5056100;28;20068;-75
2022/10/16 10:22:26;;;;;;;8.30;3.65;;;23.00;71.20;;;;;;5056442;28;20029;-76
2022/10/16 10:25:33;;;;;;;7.70;3.70;;;23.10;71.80;;;;;;5056044;28;20021;-77
2022/10/16 10:28:22;;;;;;;9.65;3.80;;;23.10;70.90;;;;;;5058303;28;20033;-75
2022/10/16 10:31:03;;;;;;;9.43;3.72;;;23.20;70.80;;;;;;5058301;28;20032;-75
2022/10/16 10:33:47;;;;;;;8.18;3.90;;;23.30;71.30;;;;;;5058103;28;20048;-77
2022/10/16 10:36:22;;;;;;;11.48;4.00;;;23.40;70.10;;;;;;5058684;28;20083;-76
2022/10/16 10:39:16;;;;;;;9.00;3.95;;;23.40;69.60;;;;;;5057333;28;20486;-75
2022/10/16 10:42:22;;;;;;;7.38;3.58;;;23.50;69.60;;;;;;5055986;28;20029;-76
2022/10/16 10:44:51;;;;;;;7.07;3.33;;;23.60;69.70;;;;;;5055856;28;20071;-75
2022/10/16 10:48:02;;;;;;;7.53;3.55;;;23.70;71.10;;;;;;5055657;28;20414;-79
2022/10/16 10:50:46;;;;;;;7.82;3.40;;;23.80;69.10;;;;;;5050461;28;20563;-81
2022/10/16 10:53:20;;;;;;;8.27;3.22;;;23.90;68.60;;;;;;5055786;28;20388;-76
2022/10/16 10:56:09;;;;;;;9.05;3.15;;;23.90;68.30;;;;;;5052535;22;20021;-80
2022/10/16 10:59:22;;;;;;;7.05;3.47;;;24.00;69.80;;;;;;4997763;28;20505;-77
2022/10/16 11:02:12;;;;;;;8.40;2.90;;;24.00;67.70;;;;;;4942117;28;20593;-77
2022/10/16 11:05:35;;;;;;;7.30;3.35;;;24.10;67.90;;;;;;5015727;28;20026;-77
2022/10/16 11:08:23;;;;;;;16.95;10.75;;;24.10;67.60;;;;;;4936245;29;20031;-78
2022/10/16 11:10:49;;;;;;;9.02;4.10;;;24.20;69.60;;;;;;4977442;28;20038;-76
2022/10/16 11:13:27;;;;;;;9.10;3.30;;;24.30;68.70;;;;;;4995985;28;20392;-78
2022/10/16 11:15:58;;;;;;;7.57;3.08;;;24.40;66.70;;;;;;4996215;28;20042;-79
2022/10/16 11:18:37;;;;;;;7.07;3.08;;;24.40;67.80;;;;;;4995957;28;20035;-77
2022/10/16 11:21:08;;;;;;;6.00;2.40;;;24.50;66.30;;;;;;4996103;28;20464;-78
2022/10/16 11:23:59;;;;;;;5.43;2.47;;;24.50;67.10;;;;;;4995912;28;20027;-76
2022/10/16 11:26:33;;;;;;;7.53;3.50;;;24.50;65.70;;;;;;4995752;28;20023;-77
2022/10/16 11:29:01;;;;;;;7.22;3.00;;;24.60;67.30;;;;;;4995669;28;20031;-75
2022/10/16 11:31:42;;;;;;;6.22;2.75;;;24.70;66.90;;;;;;4995918;28;20109;-73
2022/10/16 11:34:37;;;;;;;9.93;3.30;;;24.70;66.70;;;;;;4995807;28;20095;-78
2022/10/16 11:37:12;;;;;;;7.65;2.85;;;24.80;66.50;;;;;;4995027;28;20038;-74
2022/10/16 11:39:39;;;;;;;6.07;2.85;;;24.90;66.40;;;;;;4995425;28;20099;-78
2022/10/16 11:42:09;;;;;;;7.65;3.33;;;24.90;66.40;;;;;;4995387;28;20062;-78
2022/10/16 11:44:45;;;;;;;8.10;3.30;;;24.90;66.30;;;;;;4995244;28;20023;-77
2022/10/16 11:47:30;;;;;;;5.45;2.83;;;25.00;66.00;;;;;;4995320;28;20121;-77
2022/10/16 11:50:34;;;;;;;8.35;3.00;;;25.10;65.00;;;;;;4977901;28;20030;-75
2022/10/16 11:53:30;;;;;;;6.07;3.08;;;25.10;64.70;;;;;;4965500;28;20038;-79
2022/10/16 11:55:55;;;;;;;7.15;3.45;;;25.20;64.40;;;;;;4995438;28;20531;-79
2022/10/16 11:58:27;;;;;;;8.57;3.55;;;25.30;64.90;;;;;;4995332;28;20133;-77
2022/10/16 12:01:15;;;;;;;7.10;2.83;;;25.30;64.00;;;;;;4994927;28;20110;-79
2022/10/16 12:04:02;;;;;;;7.20;2.90;;;25.30;64.00;;;;;;4977614;28;20372;-78
2022/10/16 12:06:33;;;;;;;5.88;3.10;;;25.40;63.60;;;;;;4994960;28;20030;-79
2022/10/16 12:09:01;;;;;;;6.78;2.72;;;25.50;63.80;;;;;;4994953;28;20026;-76
2022/10/16 12:11:33;;;;;;;7.63;3.38;;;25.60;64.50;;;;;;4994975;28;20023;-79
2022/10/16 12:14:07;;;;;;;5.55;2.92;;;25.70;63.90;;;;;;4994720;28;20042;-76
2022/10/16 12:16:32;;;;;;;7.50;3.10;;;25.90;64.20;;;;;;4994538;28;20039;-78
2022/10/16 12:19:15;;;;;;;6.05;2.65;;;25.90;64.00;;;;;;4994609;28;20093;-77
2022/10/16 12:21:43;;;;;;;6.30;2.60;;;26.00;64.10;;;;;;4994552;28;20376;-76
2022/10/16 12:24:34;;;;;;;5.43;2.08;;;26.10;63.80;;;;;;4994508;28;20054;-79
2022/10/16 12:27:00;;;;;;;5.60;2.25;;;26.10;62.00;;;;;;4994262;28;20038;-77
2022/10/16 12:29:35;;;;;;;6.47;2.63;;;26.10;62.50;;;;;;4994513;28;20041;-80
2022/10/16 12:32:03;;;;;;;3.58;1.90;;;26.10;62.20;;;;;;4994680;28;20027;-78
2022/10/16 12:34:38;;;;;;;5.07;2.33;;;26.20;62.20;;;;;;4994477;28;20023;-77
2022/10/16 12:37:29;;;;;;;6.50;2.55;;;26.30;61.80;;;;;;4994236;28;20041;-77
2022/10/16 12:39:56;;;;;;;5.40;2.15;;;26.30;60.70;;;;;;4994311;28;20025;-76
2022/10/16 12:42:34;;;;;;;5.80;2.60;;;26.30;60.80;;;;;;4975548;28;20034;-79
2022/10/16 12:45:00;;;;;;;7.45;2.47;;;26.40;59.90;;;;;;4994352;28;20030;-79
2022/10/16 12:47:32;;;;;;;7.63;2.50;;;26.40;60.40;;;;;;4994361;28;20022;-80
2022/10/16 12:49:59;;;;;;;6.85;2.40;;;26.40;60.20;;;;;;4994270;28;20038;-79
2022/10/16 12:52:38;;;;;;;4.30;2.15;;;26.40;60.50;;;;;;4994318;28;20023;-77
2022/10/16 12:55:13;;;;;;;6.97;2.47;;;26.40;59.90;;;;;;4994683;28;20477;-79
2022/10/16 12:58:22;;;;;;;7.78;2.65;;;26.50;60.50;;;;;;4978398;28;20061;-76